Time;durP1;ratioP1;P1;durP2;ratioP2;P2;SDS_P1;SDS_P2;PMS_P1;PMS_P2;Temp;Humidity;BMP_temperature;BMP_pressure;BME280_temperature;BME280_humidity;BME280_pressure;Samples;Min_cycle;Max_cycle;Signal;HPM_P1;HPM_P2
2021/11/02 00:00:34;;;;;;;;;11.50;11.25;;;;;-149.00;100.00;66333.84;5160257;27;8844;-73
2021/11/02 00:03:00;;;;;;;;;9.75;9.75;;;;;-149.00;100.00;66333.84;5175677;27;8833;-74
2021/11/02 00:05:26;;;;;;;;;13.00;12.00;;;;;-149.00;100.00;66333.84;5176176;27;8794;-74
2021/11/02 00:07:52;;;;;;;;;13.33;12.00;;;;;-149.00;100.00;66333.84;5159928;27;8809;-74
2021/11/02 00:10:17;;;;;;;;;11.00;11.00;;;;;-149.00;100.00;66333.84;5159811;27;8882;-74
2021/11/02 00:12:42;;;;;;;;;10.67;10.33;;;;;-149.00;100.00;66333.84;5159960;27;8885;-74
2021/11/02 00:15:08;;;;;;;;;10.00;10.00;;;;;-149.00;100.00;66333.84;5160021;27;9541;-74
2021/11/02 00:17:37;;;;;;;;;10.33;9.00;;;;;-149.00;100.00;66333.84;5159881;27;8800;-74
2021/11/02 00:20:05;;;;;;;;;10.00;10.00;;;;;-149.00;100.00;66333.84;5159765;27;10625;-74
2021/11/02 00:22:32;;;;;;;;;10.25;10.25;;;;;-149.00;100.00;66333.84;5159695;27;8927;-73
2021/11/02 00:25:04;;;;;;;;;9.00;9.00;;;;;-149.00;100.00;66333.84;5159524;27;8765;-74
2021/11/02 00:27:32;;;;;;;;;10.25;9.75;;;;;-149.00;100.00;66333.84;5159775;27;8876;-74
2021/11/02 00:29:58;;;;;;;;;10.50;9.25;;;;;-149.00;100.00;66333.84;5153783;27;8777;-74
2021/11/02 00:32:24;;;;;;;;;8.33;8.33;;;;;-149.00;100.00;66333.84;5138931;27;9528;-74
2021/11/02 00:34:50;;;;;;;;;9.50;9.50;;;;;-149.00;100.00;66333.84;5138826;27;8799;-74
2021/11/02 00:37:16;;;;;;;;;10.00;8.50;;;;;-149.00;100.00;66333.84;5138768;27;8792;-74
2021/11/02 00:39:41;;;;;;;;;9.67;9.00;;;;;-149.00;100.00;66333.84;5138863;27;8784;-74
2021/11/02 00:42:08;;;;;;;;;12.33;10.33;;;;;-149.00;100.00;66333.84;5150031;27;8929;-74
2021/11/02 00:44:35;;;;;;;;;13.75;12.50;;;;;-149.00;100.00;66333.84;5159141;27;9770;-74
2021/11/02 00:47:00;;;;;;;;;10.25;10.25;;;;;-149.00;100.00;66333.84;5158253;27;8774;-74
2021/11/02 00:49:26;;;;;;;;;10.67;9.33;;;;;-149.00;100.00;66333.84;5159494;27;8778;-74
2021/11/02 00:51:52;;;;;;;;;10.00;9.33;;;;;-149.00;100.00;66333.84;5157982;27;8826;-74
2021/11/02 00:54:18;;;;;;;;;8.25;7.25;;;;;-149.00;100.00;66333.84;5157272;27;9656;-74
2021/11/02 00:56:44;;;;;;;;;9.00;9.00;;;;;-149.00;100.00;66333.84;5159231;27;8868;-74
2021/11/02 00:59:10;;;;;;;;;5.75;5.75;;;;;-149.00;100.00;66333.84;5159297;27;8782;-74
2021/11/02 01:01:37;;;;;;;;;6.50;6.50;;;;;-149.00;100.00;66333.84;5158862;27;8818;-74
2021/11/02 01:04:05;;;;;;;;;7.75;6.75;;;;;-149.00;100.00;66333.84;5159048;27;8778;-74
2021/11/02 01:06:35;;;;;;;;;6.75;6.75;;;;;-149.00;100.00;66333.84;5159085;27;8765;-74
2021/11/02 01:09:03;;;;;;;;;6.75;6.75;;;;;-149.00;100.00;66333.84;5159306;27;8762;-74
2021/11/02 01:11:29;;;;;;;;;7.00;7.00;;;;;-149.00;100.00;66333.84;5158895;27;8760;-74
2021/11/02 01:13:54;;;;;;;;;6.33;6.33;;;;;-149.00;100.00;66333.84;5159019;27;8778;-74
2021/11/02 01:16:23;;;;;;;;;5.33;5.00;;;;;-149.00;100.00;66333.84;5158889;27;8806;-74
2021/11/02 01:18:48;;;;;;;;;5.25;5.25;;;;;-149.00;100.00;66333.84;5158936;27;8774;-74
2021/11/02 01:21:14;;;;;;;;;5.67;4.33;;;;;-149.00;100.00;66333.84;5158662;27;8786;-74
2021/11/02 01:23:39;;;;;;;;;2.33;2.33;;;;;-149.00;100.00;66333.84;5158895;27;8782;-75
2021/11/02 01:26:05;;;;;;;;;6.00;5.00;;;;;-149.00;100.00;66333.84;5158632;27;8797;-75
2021/11/02 01:28:30;;;;;;;;;6.67;5.33;;;;;-149.00;100.00;66333.84;5158766;27;8825;-74
2021/11/02 01:30:55;;;;;;;;;5.67;4.67;;;;;-149.00;100.00;66333.84;5158537;27;8916;-74
2021/11/02 01:33:21;;;;;;;;;6.00;6.00;;;;;-149.00;100.00;66333.84;5158725;27;8808;-74
2021/11/02 01:35:46;;;;;;;;;3.00;3.00;;;;;-149.00;100.00;66333.84;5158756;27;8937;-74
2021/11/02 01:38:14;;;;;;;;;9.00;6.00;;;;;-149.00;100.00;66333.84;5157362;27;8798;-74
2021/11/02 01:40:40;;;;;;;;;6.25;5.25;;;;;-149.00;100.00;66333.84;5158207;27;8793;-74
2021/11/02 01:43:06;;;;;;;;;4.75;4.75;;;;;-149.00;100.00;66333.84;5174616;27;8795;-74
2021/11/02 01:45:31;;;;;;;;;6.00;5.33;;;;;-149.00;100.00;66333.84;5158610;27;8785;-74
2021/11/02 01:47:57;;;;;;;;;5.33;4.00;;;;;-149.00;100.00;66333.84;5158482;27;8797;-74
2021/11/02 01:50:23;;;;;;;;;5.33;5.33;;;;;-149.00;100.00;66333.84;5158564;27;8785;-75
2021/11/02 01:52:49;;;;;;;;;5.50;4.00;;;;;-149.00;100.00;66333.84;5158312;27;8778;-74
2021/11/02 01:55:16;;;;;;;;;6.00;6.00;;;;;-149.00;100.00;66333.84;5173978;27;8843;-74
2021/11/02 01:57:44;;;;;;;;;5.00;5.00;;;;;-149.00;100.00;66333.84;5156767;27;10396;-74
2021/11/02 02:00:12;;;;;;;;;6.00;5.00;;;;;-149.00;100.00;66333.84;5174357;27;8794;-74
2021/11/02 02:02:49;;;;;;;;;5.00;5.00;;;;;-149.00;100.00;66333.84;5156417;27;8829;-74
2021/11/02 02:05:58;;;;;;;;;4.25;3.25;;;;;-149.00;100.00;66333.84;5156727;27;8836;-74
2021/11/02 02:08:35;;;;;;;;;4.00;4.00;;;;;-149.00;100.00;66333.84;5146733;27;8878;-74
2021/11/02 02:11:17;;;;;;;;;3.25;3.25;;;;;-149.00;100.00;66333.84;5158045;27;8770;-74
2021/11/02 02:13:52;;;;;;;;;4.75;4.75;;;;;-149.00;100.00;66333.84;5156718;27;8782;-74
2021/11/02 02:16:37;;;;;;;;;6.25;6.25;;;;;-149.00;100.00;66333.84;5158133;27;8758;-74
2021/11/02 02:19:37;;;;;;;;;5.75;5.75;;;;;-149.00;100.00;66333.84;5158179;27;8766;-75
2021/11/02 02:22:08;;;;;;;;;4.75;4.75;;;;;-149.00;100.00;66333.84;5157899;27;8990;-74
2021/11/02 02:24:49;;;;;;;;;5.25;5.25;;;;;-149.00;100.00;66333.84;5158193;27;8774;-74
2021/11/02 02:27:42;;;;;;;;;5.00;4.00;;;;;-149.00;100.00;66333.84;5157978;27;8789;-75
2021/11/02 02:30:12;;;;;;;;;6.00;5.00;;;;;-149.00;100.00;66333.84;5149161;27;8809;-74
2021/11/02 02:32:44;;;;;;;;;5.25;5.25;;;;;-149.00;100.00;66333.84;5137124;27;9739;-74
2021/11/02 02:35:11;;;;;;;;;5.00;5.00;;;;;-149.00;100.00;66333.84;5137202;27;8773;-74
2021/11/02 02:37:39;;;;;;;;;5.50;4.25;;;;;-149.00;100.00;66333.84;5136950;27;8800;-74
2021/11/02 02:40:06;;;;;;;;;8.00;7.00;;;;;-149.00;100.00;66333.84;5136918;27;8907;-75
2021/11/02 02:42:34;;;;;;;;;5.25;4.25;;;;;-149.00;100.00;66333.84;5136893;27;8939;-74
2021/11/02 02:45:00;;;;;;;;;7.50;6.25;;;;;-149.00;100.00;66333.84;5136840;27;9719;-75
2021/11/02 02:47:27;;;;;;;;;4.00;4.00;;;;;-149.00;100.00;66333.84;5137024;27;8891;-74
2021/11/02 02:49:54;;;;;;;;;3.00;3.00;;;;;-149.00;100.00;66333.84;5136994;27;8752;-74
2021/11/02 02:52:21;;;;;;;;;4.75;4.75;;;;;-149.00;100.00;66333.84;5136701;27;8792;-74
2021/11/02 02:54:47;;;;;;;;;5.75;5.75;;;;;-149.00;100.00;66333.84;5135043;27;8785;-74
2021/11/02 02:57:14;;;;;;;;;4.67;4.67;;;;;-149.00;100.00;66333.84;5135480;27;8821;-74
2021/11/02 02:59:40;;;;;;;;;4.75;4.75;;;;;-149.00;100.00;66333.84;5136683;27;11444;-75
2021/11/02 03:02:07;;;;;;;;;4.25;4.25;;;;;-149.00;100.00;66333.84;5136360;27;8805;-74
2021/11/02 03:04:34;;;;;;;;;6.00;5.00;;;;;-149.00;100.00;66333.84;5135401;27;8777;-75
2021/11/02 03:07:02;;;;;;;;;6.25;5.00;;;;;-149.00;100.00;66333.84;5136716;27;8776;-74
2021/11/02 03:09:28;;;;;;;;;5.25;5.25;;;;;-149.00;100.00;66333.84;5137962;27;8799;-75
2021/11/02 03:11:56;;;;;;;;;5.25;4.75;;;;;-149.00;100.00;66333.84;5140072;27;8864;-74
2021/11/02 03:15:09;;;;;;;;;4.75;3.50;;;;;-149.00;100.00;66333.84;5138866;27;8792;-75
2021/11/02 03:17:29;;;;;;;;;5.50;5.00;;;;;-149.00;100.00;66333.84;5139698;27;8823;-75
2021/11/02 04:01:33;;;;;;;;;4.25;4.25;;;;;-149.00;100.00;66333.84;5159984;27;9616;-76
2021/11/02 04:23:41;;;;;;;;;7.50;7.00;;;;;-149.00;100.00;66333.84;5138179;27;8793;-75
2021/11/02 04:43:02;;;;;;;;;4.00;4.00;;;;;-149.00;100.00;66333.84;5159261;27;8786;-76
2021/11/02 05:47:55;;;;;;;;;3.50;3.00;;;;;-149.00;100.00;66333.84;5158428;27;8750;-75
2021/11/02 05:58:20;;;;;;;;;3.00;3.00;;;;;-149.00;100.00;66333.84;5158365;27;10034;-75
2021/11/02 06:00:56;;;;;;;;;4.00;3.75;;;;;-149.00;100.00;66333.84;5158223;27;8770;-76
2021/11/02 06:03:37;;;;;;;;;4.50;4.50;;;;;-149.00;100.00;66333.84;5158108;27;8773;-76
2021/11/02 06:28:19;;;;;;;;;5.00;5.00;;;;;-149.00;100.00;66333.84;5165633;27;8782;-78
2021/11/02 06:30:58;;;;;;;;;4.00;4.00;;;;;-149.00;100.00;66333.84;5156523;27;8829;-78
2021/11/02 06:34:37;;;;;;;;;5.00;5.00;;;;;-149.00;100.00;66333.84;5146376;27;8808;-78
2021/11/02 07:18:29;;;;;;;;;6.00;4.00;;;;;-149.00;100.00;66333.84;5119353;28;8749;-77
2021/11/02 07:21:14;;;;;;;;;4.00;4.00;;;;;-149.00;100.00;66333.84;5119129;28;8773;-79
2021/11/02 07:27:51;;;;;;;;;5.50;5.50;;;;;-149.00;100.00;66333.84;5140417;27;8869;-77
2021/11/02 08:47:35;;;;;;;;;2.25;2.25;;;;;-149.00;100.00;66333.84;5145713;27;8717;-78
2021/11/02 08:50:03;;;;;;;;;3.25;3.25;;;;;-149.00;100.00;66333.84;5143430;27;8907;-80
2021/11/02 08:52:32;;;;;;;;;4.00;2.75;;;;;-149.00;100.00;66333.84;5142959;27;9908;-79
2021/11/02 08:54:57;;;;;;;;;3.00;3.00;;;;;-149.00;100.00;66333.84;5137750;27;8768;-80
2021/11/02 08:57:24;;;;;;;;;3.00;3.00;;;;;-149.00;100.00;66333.84;5143025;27;8884;-81
2021/11/02 08:59:51;;;;;;;;;5.75;4.25;;;;;-149.00;100.00;66333.84;5144381;27;8753;-82
2021/11/02 09:02:33;;;;;;;;;3.00;3.00;;;;;-149.00;100.00;66333.84;5139717;27;8843;-81
2021/11/02 09:05:05;;;;;;;;;3.00;2.25;;;;;-149.00;100.00;66333.84;5141419;27;9679;-82
2021/11/02 09:07:31;;;;;;;;;2.00;2.00;;;;;-149.00;100.00;66333.84;5139719;27;8764;-81
2021/11/02 09:10:01;;;;;;;;;3.75;2.25;;;;;-149.00;100.00;66333.84;5138017;27;8860;-81
2021/11/02 09:12:31;;;;;;;;;3.00;3.00;;;;;-149.00;100.00;66333.84;5139359;27;8780;-80
2021/11/02 09:15:03;;;;;;;;;4.75;2.00;;;;;-149.00;100.00;66333.84;5155327;27;8810;-81
2021/11/02 09:17:33;;;;;;;;;3.00;3.00;;;;;-149.00;100.00;66333.84;5160274;27;8776;-79
2021/11/02 09:20:02;;;;;;;;;3.00;3.00;;;;;-149.00;100.00;66333.84;5158932;27;8786;-79
2021/11/02 09:22:29;;;;;;;;;4.00;4.00;;;;;-149.00;100.00;66333.84;5158677;27;8806;-78
2021/11/02 09:24:56;;;;;;;;;2.25;2.25;;;;;-149.00;100.00;66333.84;5158618;27;8761;-78
2021/11/02 09:27:24;;;;;;;;;4.00;3.75;;;;;-149.00;100.00;66333.84;5158743;27;8746;-81
2021/11/02 09:29:50;;;;;;;;;2.00;2.00;;;;;-149.00;100.00;66333.84;5159709;27;8900;-79
2021/11/02 09:32:16;;;;;;;;;4.75;4.25;;;;;-149.00;100.00;66333.84;5163854;27;8723;-76
2021/11/02 09:34:42;;;;;;;;;2.75;2.75;;;;;-149.00;100.00;66333.84;5158590;27;8753;-76
2021/11/02 09:37:39;;;;;;;;;4.33;4.33;;;;;-149.00;100.00;66333.84;5157211;27;8833;-77
2021/11/02 09:40:17;;;;;;;;;4.75;4.00;;;;;-149.00;100.00;66333.84;5157787;27;8785;-77
2021/11/02 09:42:47;;;;;;;;;2.25;2.00;;;;;-149.00;100.00;66333.84;5158485;27;8798;-76
2021/11/02 09:45:33;;;;;;;;;2.25;2.25;;;;;-149.00;100.00;66333.84;5157090;27;8770;-76
2021/11/02 09:48:21;;;;;;;;;3.00;1.25;;;;;-149.00;100.00;66333.84;5157974;27;8782;-77
2021/11/02 09:51:07;;;;;;;;;2.00;2.00;;;;;-149.00;100.00;66333.84;5158544;27;8754;-80
2021/11/02 09:53:46;;;;;;;;;2.25;2.25;;;;;-149.00;100.00;66333.84;5147132;27;8766;-82
2021/11/02 09:56:23;;;;;;;;;1.25;1.25;;;;;-149.00;100.00;66333.84;5156607;27;8782;-81
2021/11/02 09:59:26;;;;;;;;;2.75;2.75;;;;;-149.00;100.00;66333.84;5158322;27;8742;-81
2021/11/02 10:02:15;;;;;;;;;2.00;2.00;;;;;-149.00;100.00;66333.84;5157898;27;8805;-83
2021/11/02 10:05:00;;;;;;;;;3.00;2.75;;;;;-149.00;100.00;66333.84;5158088;27;8804;-83
2021/11/02 10:07:36;;;;;;;;;1.50;1.50;;;;;-149.00;100.00;66333.84;5156582;27;8798;-82
2021/11/02 10:10:25;;;;;;;;;2.75;2.00;;;;;-149.00;100.00;66333.84;5157915;27;8750;-83
2021/11/02 10:13:13;;;;;;;;;3.50;2.25;;;;;-149.00;100.00;66333.84;5156661;27;8774;-82
2021/11/02 10:15:49;;;;;;;;;2.00;2.00;;;;;-149.00;100.00;66333.84;5158205;27;8754;-81
2021/11/02 10:18:52;;;;;;;;;1.50;1.50;;;;;-149.00;100.00;66333.84;5157562;27;8793;-81
2021/11/02 10:21:37;;;;;;;;;2.50;2.50;;;;;-149.00;100.00;66333.84;5160119;27;8892;-82
2021/11/02 10:24:08;;;;;;;;;3.00;3.00;;;;;-149.00;100.00;66333.84;5160363;27;8745;-81
2021/11/02 10:26:40;;;;;;;;;3.50;3.50;;;;;-149.00;100.00;66333.84;5161442;27;8732;-82
2021/11/02 10:29:43;;;;;;;;;3.75;3.00;;;;;-149.00;100.00;66333.84;5161578;27;8839;-82
2021/11/02 10:32:14;;;;;;;;;2.50;2.50;;;;;-149.00;100.00;66333.84;5119924;27;8798;-81
2021/11/02 10:34:42;;;;;;;;;3.25;3.25;;;;;-149.00;100.00;66333.84;5120179;27;8756;-81
2021/11/02 10:37:41;;;;;;;;;2.25;2.25;;;;;-149.00;100.00;66333.84;5131476;27;8846;-81
2021/11/02 10:40:11;;;;;;;;;4.00;3.50;;;;;-149.00;100.00;66333.84;5140372;27;8753;-81
2021/11/02 10:42:58;;;;;;;;;3.50;3.50;;;;;-149.00;100.00;66333.84;5139187;27;9546;-81
2021/11/02 10:45:26;;;;;;;;;3.25;3.25;;;;;-149.00;100.00;66333.84;5140592;27;8783;-80
2021/11/02 10:48:11;;;;;;;;;4.00;4.00;;;;;-149.00;100.00;66333.84;5140774;27;8884;-81
2021/11/02 10:51:06;;;;;;;;;5.00;5.00;;;;;-149.00;100.00;66333.84;5141264;27;8786;-80
2021/11/02 10:53:41;;;;;;;;;5.75;5.00;;;;;-149.00;100.00;66333.84;5141232;27;8733;-82
2021/11/02 10:56:20;;;;;;;;;3.75;3.75;;;;;-149.00;100.00;66333.84;5140413;27;8768;-80
2021/11/02 10:58:49;;;;;;;;;3.25;3.00;;;;;-149.00;100.00;66333.84;5142147;27;8761;-81
2021/11/02 11:01:16;;;;;;;;;2.00;2.00;;;;;-149.00;100.00;66333.84;5143137;27;8779;-81
2021/11/02 11:03:42;;;;;;;;;2.75;2.75;;;;;-149.00;100.00;66333.84;5140650;27;8979;-82
2021/11/02 11:06:12;;;;;;;;;3.00;3.00;;;;;-149.00;100.00;66333.84;5140447;27;8861;-81
2021/11/02 11:08:40;;;;;;;;;3.25;3.25;;;;;-149.00;100.00;66333.84;5140318;27;8760;-82
2021/11/02 11:11:09;;;;;;;;;3.50;3.50;;;;;-149.00;100.00;66333.84;5140056;27;8745;-82
2021/11/02 11:13:37;;;;;;;;;4.00;3.75;;;;;-149.00;100.00;66333.84;5140110;27;8760;-82
2021/11/02 11:16:07;;;;;;;;;4.00;4.00;;;;;-149.00;100.00;66333.84;5139969;27;8752;-83
2021/11/02 11:18:45;;;;;;;;;4.25;3.25;;;;;-149.00;100.00;66333.84;5139505;27;8713;-83
2021/11/02 11:21:11;;;;;;;;;2.50;2.50;;;;;-149.00;100.00;66333.84;5138695;27;8756;-82
2021/11/02 11:23:37;;;;;;;;;2.00;2.00;;;;;-149.00;100.00;66333.84;5141524;27;8817;-81
2021/11/02 11:26:06;;;;;;;;;1.75;1.75;;;;;-149.00;100.00;66333.84;5147110;27;8761;-82
2021/11/02 11:28:39;;;;;;;;;2.50;2.00;;;;;-149.00;100.00;66333.84;5143714;27;8768;-81
2021/11/02 11:31:05;;;;;;;;;3.00;3.00;;;;;-149.00;100.00;66333.84;5140317;27;8753;-82
2021/11/02 11:33:32;;;;;;;;;3.50;3.50;;;;;-149.00;100.00;66333.84;5140368;27;8822;-82
2021/11/02 11:36:04;;;;;;;;;2.25;2.25;;;;;-149.00;100.00;66333.84;5138514;27;9775;-80
2021/11/02 11:38:39;;;;;;;;;3.75;3.00;;;;;-149.00;100.00;66333.84;5138242;27;9742;-79
2021/11/02 11:41:07;;;;;;;;;2.75;2.75;;;;;-149.00;100.00;66333.84;5139905;27;8736;-81
2021/11/02 11:43:34;;;;;;;;;3.00;3.00;;;;;-149.00;100.00;66333.84;5140020;27;8799;-81
2021/11/02 11:46:02;;;;;;;;;3.00;3.00;;;;;-149.00;100.00;66333.84;5143201;27;8853;-80
2021/11/02 11:48:29;;;;;;;;;1.75;1.75;;;;;-149.00;100.00;66333.84;5144078;27;9683;-79
2021/11/02 11:50:57;;;;;;;;;1.50;1.50;;;;;-149.00;100.00;66333.84;5141221;27;8749;-81
2021/11/02 11:53:24;;;;;;;;;1.50;1.50;;;;;-149.00;100.00;66333.84;5138528;27;10043;-81
2021/11/02 11:56:02;;;;;;;;;1.50;1.50;;;;;-149.00;100.00;66333.84;5138020;27;8907;-82
2021/11/02 11:58:27;;;;;;;;;3.50;2.00;;;;;-149.00;100.00;66333.84;5139894;27;8781;-81
2021/11/02 12:01:05;;;;;;;;;2.00;2.00;;;;;-149.00;100.00;66333.84;5140509;27;8856;-82
2021/11/02 12:03:57;;;;;;;;;2.00;2.00;;;;;-149.00;100.00;66333.84;5138404;27;8804;-81
2021/11/02 12:06:22;;;;;;;;;2.25;2.25;;;;;-149.00;100.00;66333.84;5137739;27;8780;-78
2021/11/02 12:09:19;;;;;;;;;4.00;4.00;;;;;-149.00;100.00;66333.84;5139076;27;8804;-79
2021/11/02 12:11:45;;;;;;;;;1.75;1.75;;;;;-149.00;100.00;66333.84;5139990;27;8705;-79
2021/11/02 12:14:18;;;;;;;;;1.33;1.33;;;;;-149.00;100.00;66333.84;5139369;27;9562;-78
2021/11/02 12:16:45;;;;;;;;;2.00;2.00;;;;;-149.00;100.00;66333.84;5134750;27;8768;-79
2021/11/02 12:19:19;;;;;;;;;2.50;2.50;;;;;-149.00;100.00;66333.84;5124247;27;8868;-82
2021/11/02 12:21:49;;;;;;;;;2.75;2.75;;;;;-149.00;100.00;66333.84;5119104;27;8782;-79
2021/11/02 12:24:16;;;;;;;;;1.75;1.75;;;;;-149.00;100.00;66333.84;5118727;28;8763;-77
2021/11/02 12:26:46;;;;;;;;;2.25;2.00;;;;;-149.00;100.00;66333.84;5119640;28;8712;-79
2021/11/02 12:29:27;;;;;;;;;3.25;2.50;;;;;-149.00;100.00;66333.84;5118521;27;8711;-78
2021/11/02 12:31:54;;;;;;;;;3.00;3.00;;;;;-149.00;100.00;66333.84;5118831;27;8779;-78
2021/11/02 12:34:20;;;;;;;;;5.25;3.50;;;;;-149.00;100.00;66333.84;5116572;27;8842;-77
2021/11/02 12:36:50;;;;;;;;;1.67;1.33;;;;;-149.00;100.00;66333.84;5118142;27;9642;-78
2021/11/02 12:39:19;;;;;;;;;1.75;1.75;;;;;-149.00;100.00;66333.84;5118931;27;8771;-78
2021/11/02 12:41:50;;;;;;;;;0.75;0.75;;;;;-149.00;100.00;66333.84;5116993;27;8786;-77
2021/11/02 12:44:16;;;;;;;;;1.50;1.50;;;;;-149.00;100.00;66333.84;5118339;27;9661;-79
2021/11/02 12:46:44;;;;;;;;;2.00;2.00;;;;;-149.00;100.00;66333.84;5118796;27;8894;-78
2021/11/02 12:49:14;;;;;;;;;1.25;1.25;;;;;-149.00;100.00;66333.84;5118083;27;9689;-78
2021/11/02 12:51:45;;;;;;;;;1.00;1.00;;;;;-149.00;100.00;66333.84;5118196;27;8767;-78
2021/11/02 12:54:18;;;;;;;;;1.75;1.00;;;;;-149.00;100.00;66333.84;5118426;27;8774;-78
2021/11/02 12:56:52;;;;;;;;;1.75;1.00;;;;;-149.00;100.00;66333.84;5100224;28;8918;-78
2021/11/02 12:59:21;;;;;;;;;3.00;2.25;;;;;-149.00;100.00;66333.84;5118596;27;8775;-78
2021/11/02 13:01:51;;;;;;;;;0.00;0.00;;;;;-149.00;100.00;66333.84;5117747;27;8886;-77
2021/11/02 13:04:18;;;;;;;;;1.00;1.00;;;;;-149.00;100.00;66333.84;5119238;28;8763;-78
2021/11/02 13:06:52;;;;;;;;;1.00;0.00;;;;;-149.00;100.00;66333.84;5117898;27;8821;-78
2021/11/02 13:09:20;;;;;;;;;0.25;0.25;;;;;-149.00;100.00;66333.84;5117685;27;8763;-78
2021/11/02 13:12:00;;;;;;;;;2.00;1.75;;;;;-149.00;100.00;66333.84;5117917;27;8767;-78
2021/11/02 13:14:43;;;;;;;;;0.00;0.00;;;;;-149.00;100.00;66333.84;5117752;27;8762;-78
2021/11/02 13:17:11;;;;;;;;;1.50;1.50;;;;;-149.00;100.00;66333.84;5116225;27;8809;-78
2021/11/02 13:19:46;;;;;;;;;0.00;0.00;;;;;-149.00;100.00;66333.84;5117029;27;8789;-78
2021/11/02 13:22:16;;;;;;;;;1.25;1.25;;;;;-149.00;100.00;66333.84;5117543;28;8743;-79
2021/11/02 13:25:03;;;;;;;;;0.25;0.25;;;;;-149.00;100.00;66333.84;5117383;27;8759;-78
2021/11/02 13:27:40;;;;;;;;;1.00;0.75;;;;;-149.00;100.00;66333.84;5117412;27;8917;-79
2021/11/02 13:30:26;;;;;;;;;1.25;1.00;;;;;-149.00;100.00;66333.84;5131066;27;8755;-78
2021/11/02 13:33:20;;;;;;;;;1.00;1.00;;;;;-149.00;100.00;66333.84;5157615;27;8782;-78
2021/11/02 13:36:01;;;;;;;;;0.00;0.00;;;;;-149.00;100.00;66333.84;5158746;27;8758;-78
2021/11/02 13:38:40;;;;;;;;;0.00;0.00;;;;;-149.00;100.00;66333.84;5157282;27;8770;-78
2021/11/02 13:41:19;;;;;;;;;0.00;0.00;;;;;-149.00;100.00;66333.84;5158618;27;8878;-78
2021/11/02 13:43:47;;;;;;;;;0.75;0.00;;;;;-149.00;100.00;66333.84;5157107;27;8997;-78
2021/11/02 13:46:23;;;;;;;;;0.00;0.00;;;;;-149.00;100.00;66333.84;5158722;27;8750;-79
2021/11/02 13:48:50;;;;;;;;;0.00;0.00;;;;;-149.00;100.00;66333.84;5157415;27;9404;-78
2021/11/02 13:51:17;;;;;;;;;2.50;0.00;;;;;-149.00;100.00;66333.84;5159586;27;8773;-78
2021/11/02 13:53:43;;;;;;;;;0.00;0.00;;;;;-149.00;100.00;66333.84;5156553;27;8793;-79
2021/11/02 13:56:18;;;;;;;;;1.00;1.00;;;;;-149.00;100.00;66333.84;5158468;27;8790;-79
2021/11/02 13:58:44;;;;;;;;;3.00;1.75;;;;;-149.00;100.00;66333.84;5157069;27;9680;-79
2021/11/02 14:01:31;;;;;;;;;1.00;1.00;;;;;-149.00;100.00;66333.84;5158361;27;8821;-78
2021/11/02 14:04:09;;;;;;;;;0.75;0.00;;;;;-149.00;100.00;66333.84;5158071;27;8886;-78
2021/11/02 14:06:42;;;;;;;;;1.00;1.00;;;;;-149.00;100.00;66333.84;5156861;27;8870;-78
2021/11/02 14:09:17;;;;;;;;;0.00;0.00;;;;;-149.00;100.00;66333.84;5158334;27;8766;-78
2021/11/02 14:11:43;;;;;;;;;0.00;0.00;;;;;-149.00;100.00;66333.84;5158452;27;8794;-78
2021/11/02 14:14:10;;;;;;;;;0.33;0.33;;;;;-149.00;100.00;66333.84;5141716;27;8895;-78
2021/11/02 14:16:42;;;;;;;;;0.00;0.00;;;;;-149.00;100.00;66333.84;5134778;27;8902;-78
2021/11/02 14:19:35;;;;;;;;;0.00;0.00;;;;;-149.00;100.00;66333.84;5134988;27;8869;-78
2021/11/02 14:22:05;;;;;;;;;0.00;0.00;;;;;-149.00;100.00;66333.84;5136092;27;8927;-79
2021/11/02 14:24:45;;;;;;;;;1.00;1.00;;;;;-149.00;100.00;66333.84;5133757;27;8791;-78
2021/11/02 14:27:18;;;;;;;;;0.00;0.00;;;;;-149.00;100.00;66333.84;5137350;27;8791;-78
2021/11/02 14:29:47;;;;;;;;;0.25;0.25;;;;;-149.00;100.00;66333.84;5139513;27;8797;-78
2021/11/02 14:32:38;;;;;;;;;2.00;1.00;;;;;-149.00;100.00;66333.84;5158051;27;8774;-79
2021/11/02 14:35:44;;;;;;;;;1.00;0.00;;;;;-149.00;100.00;66333.84;5158039;27;9733;-79
2021/11/02 14:38:12;;;;;;;;;0.00;0.00;;;;;-149.00;100.00;66333.84;5157729;27;8872;-79
2021/11/02 14:40:40;;;;;;;;;0.50;0.50;;;;;-149.00;100.00;66333.84;5157773;27;8773;-79
2021/11/02 14:43:15;;;;;;;;;0.00;0.00;;;;;-149.00;100.00;66333.84;5157961;27;8802;-79
2021/11/02 14:45:40;;;;;;;;;0.00;0.00;;;;;-149.00;100.00;66333.84;5157930;27;8762;-79
2021/11/02 14:48:25;;;;;;;;;0.67;0.67;;;;;-149.00;100.00;66333.84;5157967;27;8770;-79
2021/11/02 14:50:54;;;;;;;;;2.00;2.00;;;;;-149.00;100.00;66333.84;5157786;27;8774;-78
2021/11/02 14:53:32;;;;;;;;;2.75;2.75;;;;;-149.00;100.00;66333.84;5157568;27;8774;-78
2021/11/02 14:56:05;;;;;;;;;2.75;2.75;;;;;-149.00;100.00;66333.84;5156009;27;8790;-79
2021/11/02 14:58:42;;;;;;;;;4.00;3.00;;;;;-149.00;100.00;66333.84;5157788;27;8773;-78
2021/11/02 15:01:14;;;;;;;;;2.25;2.25;;;;;-149.00;100.00;66333.84;5157533;27;8797;-79
2021/11/02 15:03:41;;;;;;;;;2.00;2.00;;;;;-149.00;100.00;66333.84;5155964;27;8825;-79
2021/11/02 15:06:11;;;;;;;;;3.50;3.50;;;;;-149.00;100.00;66333.84;5159952;27;8846;-79
2021/11/02 15:08:39;;;;;;;;;1.25;1.25;;;;;-149.00;100.00;66333.84;5161222;27;8786;-79
2021/11/02 15:11:17;;;;;;;;;2.25;2.25;;;;;-149.00;100.00;66333.84;5161125;27;8782;-78
2021/11/02 15:13:49;;;;;;;;;2.00;2.00;;;;;-149.00;100.00;66333.84;5161111;27;8827;-78
2021/11/02 15:16:15;;;;;;;;;2.00;2.00;;;;;-149.00;100.00;66333.84;5161098;27;8856;-78
2021/11/02 15:18:49;;;;;;;;;2.00;1.00;;;;;-149.00;100.00;66333.84;5161098;27;8889;-78
2021/11/02 15:21:22;;;;;;;;;2.25;2.25;;;;;-149.00;100.00;66333.84;5160921;27;8707;-79
2021/11/02 15:23:51;;;;;;;;;3.25;3.00;;;;;-149.00;100.00;66333.84;5160859;27;8746;-79
2021/11/02 15:26:17;;;;;;;;;1.75;1.75;;;;;-149.00;100.00;66333.84;5160728;27;8707;-79
2021/11/02 15:28:51;;;;;;;;;2.25;2.25;;;;;-149.00;100.00;66333.84;5159521;27;9710;-79
2021/11/02 15:31:20;;;;;;;;;4.00;2.50;;;;;-149.00;100.00;66333.84;5142078;27;8919;-79
2021/11/02 15:33:46;;;;;;;;;4.00;4.00;;;;;-149.00;100.00;66333.84;5138612;27;8789;-79
2021/11/02 15:36:19;;;;;;;;;3.33;3.33;;;;;-149.00;100.00;66333.84;5139821;27;8820;-79
2021/11/02 15:38:59;;;;;;;;;4.25;3.00;;;;;-149.00;100.00;66333.84;5139970;27;8773;-79
2021/11/02 15:41:26;;;;;;;;;4.75;4.75;;;;;-149.00;100.00;66333.84;5139834;27;8768;-79
2021/11/02 15:43:54;;;;;;;;;5.50;4.75;;;;;-149.00;100.00;66333.84;5139778;27;9889;-79
2021/11/02 15:46:29;;;;;;;;;5.25;5.25;;;;;-149.00;100.00;66333.84;5139754;27;8761;-79
2021/11/02 15:48:57;;;;;;;;;4.25;4.25;;;;;-149.00;100.00;66333.84;5138229;27;8827;-79
2021/11/02 15:51:24;;;;;;;;;3.25;3.25;;;;;-149.00;100.00;66333.84;5138253;27;9702;-79
2021/11/02 15:53:50;;;;;;;;;4.50;3.25;;;;;-149.00;100.00;66333.84;5138068;27;8897;-79
2021/11/02 15:56:22;;;;;;;;;6.00;6.00;;;;;-149.00;100.00;66333.84;5138054;27;8775;-79
2021/11/02 15:58:58;;;;;;;;;5.00;4.25;;;;;-149.00;100.00;66333.84;5139664;27;9643;-79
2021/11/02 16:01:43;;;;;;;;;4.25;4.25;;;;;-149.00;100.00;66333.84;5138029;27;8808;-79
2021/11/02 16:04:17;;;;;;;;;8.75;6.00;;;;;-149.00;100.00;66333.84;5137961;27;9742;-79
2021/11/02 16:06:52;;;;;;;;;6.75;6.00;;;;;-149.00;100.00;66333.84;5139365;27;8807;-79
2021/11/02 16:09:18;;;;;;;;;8.75;8.50;;;;;-149.00;100.00;66333.84;5139214;27;8777;-79
2021/11/02 16:11:44;;;;;;;;;10.00;10.00;;;;;-149.00;100.00;66333.84;5138009;27;8817;-78
2021/11/02 16:14:09;;;;;;;;;13.00;12.00;;;;;-149.00;100.00;66333.84;5137905;27;8792;-79
2021/11/02 16:16:36;;;;;;;;;20.67;18.67;;;;;-149.00;100.00;66333.84;5137580;27;8803;-79
2021/11/02 16:19:03;;;;;;;;;23.67;22.33;;;;;-149.00;100.00;66333.84;5137584;27;8784;-79
2021/11/02 16:21:32;;;;;;;;;23.33;22.33;;;;;-149.00;100.00;66333.84;5139060;27;8998;-79
2021/11/02 16:24:06;;;;;;;;;29.00;26.00;;;;;-149.00;100.00;66333.84;5139040;27;9185;-78
2021/11/02 16:26:32;;;;;;;;;27.00;26.33;;;;;-149.00;100.00;66333.84;5139346;27;10030;-79
2021/11/02 16:29:29;;;;;;;;;24.33;22.67;;;;;-149.00;100.00;66333.84;5139101;27;9363;-79
2021/11/02 16:31:56;;;;;;;;;15.50;14.50;;;;;-149.00;100.00;66333.84;5115604;27;8822;-78
2021/11/02 16:34:24;;;;;;;;;14.00;12.50;;;;;-149.00;100.00;66333.84;5118920;27;8779;-79